sensor_id;sensor_type;location;lat;lon;timestamp;pressure;altitude;pressure_sealevel;temperature;humidity
81897;BME280;71360;43.506;1.500;2023-10-13T00:01:57;99101.81;;;19.00;72.33
81897;BME280;71360;43.506;1.500;2023-10-13T00:04:27;99108.34;;;18.97;72.56
81897;BME280;71360;43.506;1.500;2023-10-13T00:06:56;99112.03;;;18.96;72.29
81897;BME280;71360;43.506;1.500;2023-10-13T00:09:29;99112.31;;;18.93;72.38
81897;BME280;71360;43.506;1.500;2023-10-13T00:12:04;99106.16;;;18.91;72.50
81897;BME280;71360;43.506;1.500;2023-10-13T00:14:33;99117.13;;;18.89;72.78
81897;BME280;71360;43.506;1.500;2023-10-13T00:17:04;99116.34;;;18.87;72.42
81897;BME280;71360;43.506;1.500;2023-10-13T00:19:37;99114.81;;;18.85;72.67
81897;BME280;71360;43.506;1.500;2023-10-13T00:22:07;99116.78;;;18.83;72.89
81897;BME280;71360;43.506;1.500;2023-10-13T00:24:40;99110.75;;;18.79;72.64
81897;BME280;71360;43.506;1.500;2023-10-13T00:27:10;99116.31;;;18.78;72.56
81897;BME280;71360;43.506;1.500;2023-10-13T00:30:01;99119.56;;;18.71;72.96
81897;BME280;71360;43.506;1.500;2023-10-13T00:32:48;99122.50;;;18.68;72.73
81897;BME280;71360;43.506;1.500;2023-10-13T00:35:23;99123.91;;;18.63;73.08
81897;BME280;71360;43.506;1.500;2023-10-13T00:38:07;99115.22;;;18.59;73.16
81897;BME280;71360;43.506;1.500;2023-10-13T00:40:43;99115.44;;;18.56;73.34
81897;BME280;71360;43.506;1.500;2023-10-13T00:43:10;99111.28;;;18.52;73.55
81897;BME280;71360;43.506;1.500;2023-10-13T00:45:47;99111.69;;;18.47;73.58
81897;BME280;71360;43.506;1.500;2023-10-13T00:48:22;99115.66;;;18.43;73.77
81897;BME280;71360;43.506;1.500;2023-10-13T00:50:56;99114.06;;;18.41;73.88
81897;BME280;71360;43.506;1.500;2023-10-13T00:53:23;99111.63;;;18.37;74.25
81897;BME280;71360;43.506;1.500;2023-10-13T00:55:50;99111.03;;;18.34;74.23
81897;BME280;71360;43.506;1.500;2023-10-13T00:58:17;99106.72;;;18.31;74.80
81897;BME280;71360;43.506;1.500;2023-10-13T01:00:50;99096.19;;;18.28;74.66
81897;BME280;71360;43.506;1.500;2023-10-13T01:03:24;99107.13;;;18.27;74.83
81897;BME280;71360;43.506;1.500;2023-10-13T01:05:55;99098.41;;;18.23;75.19
81897;BME280;71360;43.506;1.500;2023-10-13T01:08:33;99098.69;;;18.20;75.33
81897;BME280;71360;43.506;1.500;2023-10-13T01:11:04;99094.13;;;18.20;75.38
81897;BME280;71360;43.506;1.500;2023-10-13T01:13:33;99090.56;;;18.20;75.34
81897;BME280;71360;43.506;1.500;2023-10-13T01:16:03;99090.69;;;18.18;75.41
81897;BME280;71360;43.506;1.500;2023-10-13T01:18:29;99093.41;;;18.18;75.63
81897;BME280;71360;43.506;1.500;2023-10-13T01:20:55;99088.97;;;18.17;75.54
81897;BME280;71360;43.506;1.500;2023-10-13T01:23:26;99086.41;;;18.16;75.94
81897;BME280;71360;43.506;1.500;2023-10-13T01:25:54;99081.97;;;18.15;75.96
81897;BME280;71360;43.506;1.500;2023-10-13T01:28:22;99086.41;;;18.16;75.82
81897;BME280;71360;43.506;1.500;2023-10-13T01:30:47;99073.84;;;18.15;75.82
81897;BME280;71360;43.506;1.500;2023-10-13T01:33:19;99073.00;;;18.14;75.90
81897;BME280;71360;43.506;1.500;2023-10-13T01:35:55;99067.72;;;18.13;76.21
81897;BME280;71360;43.506;1.500;2023-10-13T01:38:23;99068.72;;;18.12;76.35
81897;BME280;71360;43.506;1.500;2023-10-13T01:40:53;99054.19;;;18.13;75.61
81897;BME280;71360;43.506;1.500;2023-10-13T01:43:21;99060.59;;;18.12;76.24
81897;BME280;71360;43.506;1.500;2023-10-13T01:45:48;99054.31;;;18.11;76.21
81897;BME280;71360;43.506;1.500;2023-10-13T01:48:15;99056.19;;;18.11;76.37
81897;BME280;71360;43.506;1.500;2023-10-13T01:50:45;99056.19;;;18.11;76.36
81897;BME280;71360;43.506;1.500;2023-10-13T01:53:21;99051.88;;;18.08;76.23
81897;BME280;71360;43.506;1.500;2023-10-13T01:55:48;99052.88;;;18.07;76.18
81897;BME280;71360;43.506;1.500;2023-10-13T01:58:15;99049.31;;;18.07;76.21
81897;BME280;71360;43.506;1.500;2023-10-13T02:00:46;99052.16;;;18.05;76.50
81897;BME280;71360;43.506;1.500;2023-10-13T02:03:14;99042.44;;;18.02;76.16
81897;BME280;71360;43.506;1.500;2023-10-13T02:05:47;99042.59;;;18.01;76.61
81897;BME280;71360;43.506;1.500;2023-10-13T02:08:19;99044.69;;;17.97;76.84
81897;BME280;71360;43.506;1.500;2023-10-13T02:10:51;99040.16;;;17.98;76.79
81897;BME280;71360;43.506;1.500;2023-10-13T02:13:18;99037.56;;;17.96;76.54
81897;BME280;71360;43.506;1.500;2023-10-13T02:15:49;99034.97;;;17.95;76.50
81897;BME280;71360;43.506;1.500;2023-10-13T02:18:19;99031.56;;;17.93;76.50
81897;BME280;71360;43.506;1.500;2023-10-13T02:20:54;99028.97;;;17.91;76.35
81897;BME280;71360;43.506;1.500;2023-10-13T02:23:23;99027.25;;;17.90;76.48
81897;BME280;71360;43.506;1.500;2023-10-13T02:25:50;99027.25;;;17.90;76.30
81897;BME280;71360;43.506;1.500;2023-10-13T02:28:29;99017.66;;;17.86;76.31
81897;BME280;71360;43.506;1.500;2023-10-13T02:31:02;99022.09;;;17.87;76.56
81897;BME280;71360;43.506;1.500;2023-10-13T02:33:29;99007.13;;;17.83;76.63
81897;BME280;71360;43.506;1.500;2023-10-13T02:36:00;99012.53;;;17.83;76.63
81897;BME280;71360;43.506;1.500;2023-10-13T02:38:29;99008.94;;;17.82;76.97
81897;BME280;71360;43.506;1.500;2023-10-13T02:41:17;99011.78;;;17.81;77.28
81897;BME280;71360;43.506;1.500;2023-10-13T02:43:53;98993.84;;;17.80;76.91
81897;BME280;71360;43.506;1.500;2023-10-13T02:46:20;98993.84;;;17.80;76.95
81897;BME280;71360;43.506;1.500;2023-10-13T02:48:55;99006.38;;;17.81;77.04
81897;BME280;71360;43.506;1.500;2023-10-13T02:51:26;98999.13;;;17.81;77.22
81897;BME280;71360;43.506;1.500;2023-10-13T02:54:02;98999.13;;;17.81;76.96
81897;BME280;71360;43.506;1.500;2023-10-13T02:56:29;98990.91;;;17.83;76.99
81897;BME280;71360;43.506;1.500;2023-10-13T02:58:55;98990.91;;;17.83;76.86
81897;BME280;71360;43.506;1.500;2023-10-13T03:01:34;98980.94;;;17.83;77.21
81897;BME280;71360;43.506;1.500;2023-10-13T03:04:04;98985.94;;;17.88;77.02
81897;BME280;71360;43.506;1.500;2023-10-13T03:06:34;98985.94;;;17.88;77.10
81897;BME280;71360;43.506;1.500;2023-10-13T03:09:07;98985.94;;;17.88;77.20
81897;BME280;71360;43.506;1.500;2023-10-13T03:11:46;98978.56;;;17.90;76.98
81897;BME280;71360;43.506;1.500;2023-10-13T03:14:21;98981.19;;;17.92;76.87
81897;BME280;71360;43.506;1.500;2023-10-13T03:17:01;98980.19;;;17.93;77.19
81897;BME280;71360;43.506;1.500;2023-10-13T03:19:49;98981.19;;;17.92;76.95
81897;BME280;71360;43.506;1.500;2023-10-13T03:22:19;98974.66;;;17.94;77.21
81897;BME280;71360;43.506;1.500;2023-10-13T03:24:57;98973.69;;;17.95;77.13
81897;BME280;71360;43.506;1.500;2023-10-13T03:27:31;98961.84;;;17.96;77.06
81897;BME280;71360;43.506;1.500;2023-10-13T03:30:07;98967.00;;;17.99;77.29
81897;BME280;71360;43.506;1.500;2023-10-13T03:32:38;98963.28;;;18.00;77.29
81897;BME280;71360;43.506;1.500;2023-10-13T03:35:09;98965.91;;;18.02;77.20
81897;BME280;71360;43.506;1.500;2023-10-13T03:37:53;98965.75;;;18.03;77.38
81897;BME280;71360;43.506;1.500;2023-10-13T03:40:20;98967.44;;;18.04;77.02
81897;BME280;71360;43.506;1.500;2023-10-13T03:42:51;98957.38;;;18.07;77.18
81897;BME280;71360;43.506;1.500;2023-10-13T03:45:44;98954.66;;;18.07;77.31
81897;BME280;71360;43.506;1.500;2023-10-13T03:48:17;98952.81;;;18.07;77.31
81897;BME280;71360;43.506;1.500;2023-10-13T03:50:53;98952.56;;;18.10;77.27
81897;BME280;71360;43.506;1.500;2023-10-13T03:53:35;98952.56;;;18.10;77.41
81897;BME280;71360;43.506;1.500;2023-10-13T03:56:02;98954.25;;;18.11;77.50
81897;BME280;71360;43.506;1.500;2023-10-13T03:58:38;98947.03;;;18.12;77.15
81897;BME280;71360;43.506;1.500;2023-10-13T04:01:07;98941.47;;;18.13;77.54
81897;BME280;71360;43.506;1.500;2023-10-13T04:03:35;98942.31;;;18.14;77.49
81897;BME280;71360;43.506;1.500;2023-10-13T04:06:04;98942.06;;;18.17;77.25
81897;BME280;71360;43.506;1.500;2023-10-13T04:08:34;98944.66;;;18.18;77.72
81897;BME280;71360;43.506;1.500;2023-10-13T04:11:08;98946.47;;;18.18;77.74
81897;BME280;71360;43.506;1.500;2023-10-13T04:13:52;98942.78;;;18.19;77.52
81897;BME280;71360;43.506;1.500;2023-10-13T04:16:47;98941.66;;;18.21;77.46
81897;BME280;71360;43.506;1.500;2023-10-13T04:19:18;98936.13;;;18.23;77.55
81897;BME280;71360;43.506;1.500;2023-10-13T04:21:57;98926.13;;;18.23;77.48
81897;BME280;71360;43.506;1.500;2023-10-13T04:24:42;98928.75;;;18.25;77.65
81897;BME280;71360;43.506;1.500;2023-10-13T04:27:19;98936.72;;;18.27;77.54
81897;BME280;71360;43.506;1.500;2023-10-13T04:30:04;98935.59;;;18.29;77.15
81897;BME280;71360;43.506;1.500;2023-10-13T04:32:32;98936.31;;;18.31;77.33
81897;BME280;71360;43.506;1.500;2023-10-13T04:35:09;98938.88;;;18.33;77.48
81897;BME280;71360;43.506;1.500;2023-10-13T04:37:38;98945.03;;;18.35;77.95
81897;BME280;71360;43.506;1.500;2023-10-13T04:40:18;98934.06;;;18.36;77.28
81897;BME280;71360;43.506;1.500;2023-10-13T04:42:51;98933.91;;;18.38;77.67
81897;BME280;71360;43.506;1.500;2023-10-13T04:45:23;98948.03;;;18.42;77.50
81897;BME280;71360;43.506;1.500;2023-10-13T04:47:54;98944.31;;;18.43;77.12
81897;BME280;71360;43.506;1.500;2023-10-13T04:50:44;98945.06;;;18.45;77.43
81897;BME280;71360;43.506;1.500;2023-10-13T04:53:21;98942.34;;;18.45;77.25
81897;BME280;71360;43.506;1.500;2023-10-13T04:56:02;98936.81;;;18.46;77.27
81897;BME280;71360;43.506;1.500;2023-10-13T04:58:29;98945.66;;;18.48;77.28
81897;BME280;71360;43.506;1.500;2023-10-13T05:01:00;98946.22;;;18.52;77.02
81897;BME280;71360;43.506;1.500;2023-10-13T05:03:44;98948.22;;;18.50;77.18
81897;BME280;71360;43.506;1.500;2023-10-13T05:06:19;98948.78;;;18.53;77.10
81897;BME280;71360;43.506;1.500;2023-10-13T05:09:18;98951.50;;;18.53;77.29
81897;BME280;71360;43.506;1.500;2023-10-13T05:12:02;98952.38;;;18.54;77.22
81897;BME280;71360;43.506;1.500;2023-10-13T05:14:48;98952.22;;;18.55;77.16
81897;BME280;71360;43.506;1.500;2023-10-13T05:17:35;98950.38;;;18.56;76.96
81897;BME280;71360;43.506;1.500;2023-10-13T05:20:19;98948.69;;;18.55;76.99
81897;BME280;71360;43.506;1.500;2023-10-13T05:23:03;98951.25;;;18.56;77.17
81897;BME280;71360;43.506;1.500;2023-10-13T05:25:47;98944.97;;;18.56;77.24
81897;BME280;71360;43.506;1.500;2023-10-13T05:28:50;98949.38;;;18.57;76.96
81897;BME280;71360;43.506;1.500;2023-10-13T05:31:34;98948.41;;;18.58;76.99
81897;BME280;71360;43.506;1.500;2023-10-13T05:34:29;98947.41;;;18.59;77.10
81897;BME280;71360;43.506;1.500;2023-10-13T05:37:16;98939.16;;;18.61;76.88
81897;BME280;71360;43.506;1.500;2023-10-13T05:40:00;98941.72;;;18.62;77.15
81897;BME280;71360;43.506;1.500;2023-10-13T05:42:44;98934.44;;;18.63;76.92
81897;BME280;71360;43.506;1.500;2023-10-13T05:45:28;98939.72;;;18.64;77.10
81897;BME280;71360;43.506;1.500;2023-10-13T05:48:22;98938.59;;;18.67;76.94
81897;BME280;71360;43.506;1.500;2023-10-13T05:51:07;98941.03;;;18.70;77.35
81897;BME280;71360;43.506;1.500;2023-10-13T05:54:05;98943.75;;;18.70;77.56
81897;BME280;71360;43.506;1.500;2023-10-13T05:56:46;98941.63;;;18.73;77.47
81897;BME280;71360;43.506;1.500;2023-10-13T05:59:31;98944.31;;;18.73;77.24
81897;BME280;71360;43.506;1.500;2023-10-13T06:02:17;98945.19;;;18.74;77.35
81897;BME280;71360;43.506;1.500;2023-10-13T06:05:05;98948.47;;;18.78;77.31
81897;BME280;71360;43.506;1.500;2023-10-13T06:07:50;98940.34;;;18.78;77.56
81897;BME280;71360;43.506;1.500;2023-10-13T06:10:34;98944.63;;;18.80;77.49
81897;BME280;71360;43.506;1.500;2023-10-13T06:13:18;98943.50;;;18.83;77.85
81897;BME280;71360;43.506;1.500;2023-10-13T06:16:10;98954.03;;;18.86;77.73
81897;BME280;71360;43.506;1.500;2023-10-13T06:18:53;98950.09;;;18.90;78.03
81897;BME280;71360;43.506;1.500;2023-10-13T06:21:38;98952.56;;;18.93;77.53
81897;BME280;71360;43.506;1.500;2023-10-13T06:24:22;98948.56;;;18.97;77.73
81897;BME280;71360;43.506;1.500;2023-10-13T06:27:09;98941.88;;;19.01;77.96
81897;BME280;71360;43.506;1.500;2023-10-13T06:29:53;98941.59;;;19.04;77.83
81897;BME280;71360;43.506;1.500;2023-10-13T06:32:20;98943.88;;;19.09;77.82
81897;BME280;71360;43.506;1.500;2023-10-13T06:34:46;98946.19;;;19.14;77.57
81897;BME280;71360;43.506;1.500;2023-10-13T06:37:25;98951.03;;;19.20;77.90
81897;BME280;71360;43.506;1.500;2023-10-13T06:39:56;98958.75;;;19.25;77.64
81897;BME280;71360;43.506;1.500;2023-10-13T06:42:28;98961.03;;;19.29;77.71
81897;BME280;71360;43.506;1.500;2023-10-13T06:44:55;98960.47;;;19.35;77.71
81897;BME280;71360;43.506;1.500;2023-10-13T06:47:24;98963.59;;;19.40;77.61
81897;BME280;71360;43.506;1.500;2023-10-13T06:49:50;98964.34;;;19.43;77.68
81897;BME280;71360;43.506;1.500;2023-10-13T06:52:23;98968.19;;;19.50;77.22
81897;BME280;71360;43.506;1.500;2023-10-13T06:54:57;98965.22;;;19.53;76.95
81897;BME280;71360;43.506;1.500;2023-10-13T06:57:23;98966.50;;;19.59;77.46
81897;BME280;71360;43.506;1.500;2023-10-13T06:59:51;98953.50;;;19.62;77.12
81897;BME280;71360;43.506;1.500;2023-10-13T07:02:31;98958.34;;;19.68;77.01
81897;BME280;71360;43.506;1.500;2023-10-13T07:04:58;98967.91;;;19.72;76.86
81897;BME280;71360;43.506;1.500;2023-10-13T07:07:32;98966.78;;;19.75;77.15
81897;BME280;71360;43.506;1.500;2023-10-13T07:09:58;98963.78;;;19.78;77.21
81897;BME280;71360;43.506;1.500;2023-10-13T07:12:24;98973.22;;;19.84;76.62
81897;BME280;71360;43.506;1.500;2023-10-13T07:14:58;98968.22;;;19.89;77.13
81897;BME280;71360;43.506;1.500;2023-10-13T07:17:46;98965.22;;;19.92;76.81
81897;BME280;71360;43.506;1.500;2023-10-13T07:20:31;98962.63;;;20.00;76.53
81897;BME280;71360;43.506;1.500;2023-10-13T07:23:10;98966.75;;;20.04;76.75
81897;BME280;71360;43.506;1.500;2023-10-13T07:25:56;98973.59;;;20.08;76.34
81897;BME280;71360;43.506;1.500;2023-10-13T07:28:32;98983.91;;;20.15;76.15
81897;BME280;71360;43.506;1.500;2023-10-13T07:31:03;98981.31;;;20.23;76.37
81897;BME280;71360;43.506;1.500;2023-10-13T07:33:38;98980.75;;;20.29;75.74
81897;BME280;71360;43.506;1.500;2023-10-13T07:36:10;98978.41;;;20.34;75.79
81897;BME280;71360;43.506;1.500;2023-10-13T07:38:43;98991.41;;;20.40;75.42
81897;BME280;71360;43.506;1.500;2023-10-13T07:41:14;98975.56;;;20.46;75.41
81897;BME280;71360;43.506;1.500;2023-10-13T07:43:41;98983.81;;;20.54;75.41
81897;BME280;71360;43.506;1.500;2023-10-13T07:46:10;98977.78;;;20.60;75.00
81897;BME280;71360;43.506;1.500;2023-10-13T07:48:40;98977.91;;;20.68;74.53
81897;BME280;71360;43.506;1.500;2023-10-13T07:51:09;98970.03;;;20.75;74.68
81897;BME280;71360;43.506;1.500;2023-10-13T07:53:42;98963.16;;;20.81;74.24
81897;BME280;71360;43.506;1.500;2023-10-13T07:56:10;98990.56;;;20.87;73.89
81897;BME280;71360;43.506;1.500;2023-10-13T07:58:45;98993.53;;;20.94;74.04
81897;BME280;71360;43.506;1.500;2023-10-13T08:01:26;98980.50;;;20.98;73.79
81897;BME280;71360;43.506;1.500;2023-10-13T08:04:11;98980.63;;;21.06;73.44
81897;BME280;71360;43.506;1.500;2023-10-13T08:06:37;98993.59;;;21.12;72.93
81897;BME280;71360;43.506;1.500;2023-10-13T08:09:14;99002.00;;;21.19;73.15
81897;BME280;71360;43.506;1.500;2023-10-13T08:12:06;99002.38;;;21.24;72.64
81897;BME280;71360;43.506;1.500;2023-10-13T08:14:36;98986.16;;;21.32;73.00
81897;BME280;71360;43.506;1.500;2023-10-13T08:17:05;99003.75;;;21.38;72.49
81897;BME280;71360;43.506;1.500;2023-10-13T08:19:36;98995.13;;;21.42;72.54
81897;BME280;71360;43.506;1.500;2023-10-13T08:22:05;99006.09;;;21.51;71.79
81897;BME280;71360;43.506;1.500;2023-10-13T08:24:47;99007.22;;;21.58;72.24
81897;BME280;71360;43.506;1.500;2023-10-13T08:27:15;99012.91;;;21.65;72.04
81897;BME280;71360;43.506;1.500;2023-10-13T08:30:22;99009.09;;;21.75;71.16
81897;BME280;71360;43.506;1.500;2023-10-13T08:32:55;99014.31;;;21.87;71.29
81897;BME280;71360;43.506;1.500;2023-10-13T08:35:30;98988.03;;;21.96;70.77
81897;BME280;71360;43.506;1.500;2023-10-13T08:37:56;99000.38;;;22.08;70.36
81897;BME280;71360;43.506;1.500;2023-10-13T08:40:26;98995.38;;;22.21;70.45
81897;BME280;71360;43.506;1.500;2023-10-13T08:43:12;98993.56;;;22.30;70.28
81897;BME280;71360;43.506;1.500;2023-10-13T08:45:40;98988.59;;;22.43;69.96
81897;BME280;71360;43.506;1.500;2023-10-13T08:48:06;98983.03;;;22.53;69.60
81897;BME280;71360;43.506;1.500;2023-10-13T08:50:39;98982.94;;;22.63;68.61
81897;BME280;71360;43.506;1.500;2023-10-13T08:53:26;98970.22;;;22.72;68.55
81897;BME280;71360;43.506;1.500;2023-10-13T08:56:06;98981.69;;;22.84;68.31
81897;BME280;71360;43.506;1.500;2023-10-13T08:58:36;98973.22;;;22.95;67.91
81897;BME280;71360;43.506;1.500;2023-10-13T09:01:20;98961.31;;;23.04;67.55
81897;BME280;71360;43.506;1.500;2023-10-13T09:04:15;98973.50;;;23.18;67.61
81897;BME280;71360;43.506;1.500;2023-10-13T09:06:45;98963.16;;;23.30;67.00
81897;BME280;71360;43.506;1.500;2023-10-13T09:12:12;98962.50;;;23.45;66.25
81897;BME280;71360;43.506;1.500;2023-10-13T09:14:42;98959.28;;;23.49;66.18
81897;BME280;71360;43.506;1.500;2023-10-13T09:17:10;98969.66;;;23.54;65.49
81897;BME280;71360;43.506;1.500;2023-10-13T09:19:49;98965.56;;;23.58;65.64
81897;BME280;71360;43.506;1.500;2023-10-13T09:22:27;98969.19;;;23.67;65.27
81897;BME280;71360;43.506;1.500;2023-10-13T09:25:00;98958.94;;;23.77;64.96
81897;BME280;71360;43.506;1.500;2023-10-13T09:27:31;98962.72;;;23.84;64.51
81897;BME280;71360;43.506;1.500;2023-10-13T09:30:02;98964.78;;;23.90;64.76
81897;BME280;71360;43.506;1.500;2023-10-13T09:33:01;98968.03;;;23.94;64.48
81897;BME280;71360;43.506;1.500;2023-10-13T09:35:28;98963.94;;;23.98;63.80
81897;BME280;71360;43.506;1.500;2023-10-13T09:37:58;98968.88;;;24.03;63.90
81897;BME280;71360;43.506;1.500;2023-10-13T09:40:26;98965.31;;;24.10;63.79
81897;BME280;71360;43.506;1.500;2023-10-13T09:43:03;98961.38;;;24.21;63.50
81897;BME280;71360;43.506;1.500;2023-10-13T09:45:40;98970.06;;;24.33;63.10
81897;BME280;71360;43.506;1.500;2023-10-13T09:48:38;98964.91;;;24.38;62.27
81897;BME280;71360;43.506;1.500;2023-10-13T09:51:14;98964.25;;;24.44;62.29
81897;BME280;71360;43.506;1.500;2023-10-13T09:53:50;98970.41;;;24.47;61.36
81897;BME280;71360;43.506;1.500;2023-10-13T09:56:25;98973.13;;;24.47;61.47
81897;BME280;71360;43.506;1.500;2023-10-13T09:59:06;98977.53;;;24.48;61.32
81897;BME280;71360;43.506;1.500;2023-10-13T10:01:43;98975.97;;;24.53;61.16
81897;BME280;71360;43.506;1.500;2023-10-13T10:04:17;98974.47;;;24.59;61.33
81897;BME280;71360;43.506;1.500;2023-10-13T10:06:57;98971.75;;;24.67;60.96
81897;BME280;71360;43.506;1.500;2023-10-13T10:09:31;98963.16;;;24.78;60.40
81897;BME280;71360;43.506;1.500;2023-10-13T10:15:06;98958.97;;;24.99;60.33
81897;BME280;71360;43.506;1.500;2023-10-13T10:17:40;98962.81;;;25.13;59.81
81897;BME280;71360;43.506;1.500;2023-10-13T10:20:09;98963.28;;;25.25;59.36
81897;BME280;71360;43.506;1.500;2023-10-13T10:22:56;98959.66;;;25.33;58.29
81897;BME280;71360;43.506;1.500;2023-10-13T10:25:33;98964.81;;;25.36;57.75
81897;BME280;71360;43.506;1.500;2023-10-13T10:28:07;98961.88;;;25.37;57.81
81897;BME280;71360;43.506;1.500;2023-10-13T10:30:37;98959.47;;;25.42;57.69
81897;BME280;71360;43.506;1.500;2023-10-13T10:33:08;98950.25;;;25.43;57.02
81897;BME280;71360;43.506;1.500;2023-10-13T10:35:46;98949.88;;;25.47;56.52
81897;BME280;71360;43.506;1.500;2023-10-13T10:38:13;98951.56;;;25.48;56.71
81897;BME280;71360;43.506;1.500;2023-10-13T10:41:02;98956.31;;;25.54;56.34
81897;BME280;71360;43.506;1.500;2023-10-13T10:46:25;98960.81;;;25.70;56.17
81897;BME280;71360;43.506;1.500;2023-10-13T10:49:04;98952.03;;;25.83;56.29
81897;BME280;71360;43.506;1.500;2023-10-13T10:51:40;98959.09;;;25.92;55.91
81897;BME280;71360;43.506;1.500;2023-10-13T10:54:19;98958.38;;;25.98;54.79
81897;BME280;71360;43.506;1.500;2023-10-13T10:56:46;98963.47;;;26.01;54.43
81897;BME280;71360;43.506;1.500;2023-10-13T10:59:21;98964.00;;;26.05;54.20
81897;BME280;71360;43.506;1.500;2023-10-13T11:01:50;98963.94;;;26.13;54.33
81897;BME280;71360;43.506;1.500;2023-10-13T11:04:19;98966.78;;;26.20;54.15
81897;BME280;71360;43.506;1.500;2023-10-13T11:06:59;98969.63;;;26.26;53.85
81897;BME280;71360;43.506;1.500;2023-10-13T11:09:34;98960.47;;;26.34;53.19
81897;BME280;71360;43.506;1.500;2023-10-13T11:14:31;98959.06;;;26.53;52.83
81897;BME280;71360;43.506;1.500;2023-10-13T11:17:04;98962.41;;;26.63;52.84
81897;BME280;71360;43.506;1.500;2023-10-13T11:19:40;98947.81;;;26.71;51.88
81897;BME280;71360;43.506;1.500;2023-10-13T11:22:16;98947.91;;;26.78;52.48
81897;BME280;71360;43.506;1.500;2023-10-13T11:25:05;98949.66;;;26.86;51.82
81897;BME280;71360;43.506;1.500;2023-10-13T11:27:40;98943.91;;;26.95;51.40
81897;BME280;71360;43.506;1.500;2023-10-13T11:30:17;98942.09;;;27.03;51.42
81897;BME280;71360;43.506;1.500;2023-10-13T11:33:08;98936.31;;;27.12;52.06
81897;BME280;71360;43.506;1.500;2023-10-13T11:35:40;98932.81;;;27.19;51.61
81897;BME280;71360;43.506;1.500;2023-10-13T11:38:31;98935.78;;;27.24;51.72
81897;BME280;71360;43.506;1.500;2023-10-13T11:41:04;98927.84;;;27.29;50.98
81897;BME280;71360;43.506;1.500;2023-10-13T11:43:50;98924.91;;;27.30;50.38
81897;BME280;71360;43.506;1.500;2023-10-13T11:49:05;98919.16;;;27.40;50.58
81897;BME280;71360;43.506;1.500;2023-10-13T11:51:45;98915.34;;;27.41;49.75
81897;BME280;71360;43.506;1.500;2023-10-13T11:54:20;98923.38;;;27.43;49.94
81897;BME280;71360;43.506;1.500;2023-10-13T11:56:49;98922.06;;;27.39;50.17
81897;BME280;71360;43.506;1.500;2023-10-13T11:59:15;98911.47;;;27.36;49.84
81897;BME280;71360;43.506;1.500;2023-10-13T12:01:47;98908.06;;;27.34;49.68
81897;BME280;71360;43.506;1.500;2023-10-13T12:04:31;98906.75;;;27.29;49.29
81897;BME280;71360;43.506;1.500;2023-10-13T12:07:00;98903.56;;;27.26;49.32
81897;BME280;71360;43.506;1.500;2023-10-13T12:09:49;98891.91;;;27.24;49.35
81897;BME280;71360;43.506;1.500;2023-10-13T12:12:24;98895.53;;;27.24;48.89
81897;BME280;71360;43.506;1.500;2023-10-13T12:14:50;98898.25;;;27.24;49.20
81897;BME280;71360;43.506;1.500;2023-10-13T12:17:30;98893.63;;;27.25;49.02
81897;BME280;71360;43.506;1.500;2023-10-13T12:20:05;98888.78;;;27.27;49.21
81897;BME280;71360;43.506;1.500;2023-10-13T12:22:37;98888.19;;;27.32;49.26
81897;BME280;71360;43.506;1.500;2023-10-13T12:25:08;98888.66;;;27.35;48.73
81897;BME280;71360;43.506;1.500;2023-10-13T12:27:53;98884.53;;;27.39;48.99
81897;BME280;71360;43.506;1.500;2023-10-13T12:30:26;98877.88;;;27.49;49.02
81897;BME280;71360;43.506;1.500;2023-10-13T12:33:02;98873.09;;;27.57;49.26
81897;BME280;71360;43.506;1.500;2023-10-13T12:35:40;98864.13;;;27.70;48.36
81897;BME280;71360;43.506;1.500;2023-10-13T12:38:36;98864.22;;;27.84;48.24
81897;BME280;71360;43.506;1.500;2023-10-13T12:41:20;98873.44;;;27.98;48.25
81897;BME280;71360;43.506;1.500;2023-10-13T12:44:05;98859.38;;;28.07;47.97
81897;BME280;71360;43.506;1.500;2023-10-13T12:46:51;98857.53;;;28.15;47.87
81897;BME280;71360;43.506;1.500;2023-10-13T12:49:36;98856.06;;;28.19;46.99
81897;BME280;71360;43.506;1.500;2023-10-13T12:52:10;98866.66;;;28.22;47.38
81897;BME280;71360;43.506;1.500;2023-10-13T12:54:46;98862.66;;;28.24;46.84
81897;BME280;71360;43.506;1.500;2023-10-13T12:57:33;98859.91;;;28.24;46.01
81897;BME280;71360;43.506;1.500;2023-10-13T12:59:59;98851.03;;;28.22;45.49
81897;BME280;71360;43.506;1.500;2023-10-13T13:02:26;98841.75;;;28.23;45.43
81897;BME280;71360;43.506;1.500;2023-10-13T13:04:56;98852.75;;;28.23;45.82
81897;BME280;71360;43.506;1.500;2023-10-13T13:07:51;98843.22;;;28.26;46.15
81897;BME280;71360;43.506;1.500;2023-10-13T13:10:20;98842.84;;;28.29;45.74
81897;BME280;71360;43.506;1.500;2023-10-13T13:13:00;98849.63;;;28.33;45.42
81897;BME280;71360;43.506;1.500;2023-10-13T13:15:26;98839.25;;;28.35;45.76
81897;BME280;71360;43.506;1.500;2023-10-13T13:17:51;98839.47;;;28.34;44.98
81897;BME280;71360;43.506;1.500;2023-10-13T13:20:17;98827.66;;;28.33;45.43
81897;BME280;71360;43.506;1.500;2023-10-13T13:23:00;98834.38;;;28.30;45.31
81897;BME280;71360;43.506;1.500;2023-10-13T13:25:29;98835.44;;;28.29;45.74
81897;BME280;71360;43.506;1.500;2023-10-13T13:27:58;98825.72;;;28.34;45.45
81897;BME280;71360;43.506;1.500;2023-10-13T13:30:30;98821.56;;;28.44;45.74
81897;BME280;71360;43.506;1.500;2023-10-13T13:33:00;98817.41;;;28.62;45.18
81897;BME280;71360;43.506;1.500;2023-10-13T13:35:38;98821.97;;;28.76;44.97
81897;BME280;71360;43.506;1.500;2023-10-13T13:38:04;98816.91;;;28.93;44.58
81897;BME280;71360;43.506;1.500;2023-10-13T13:40:42;98819.72;;;29.07;44.71
81897;BME280;71360;43.506;1.500;2023-10-13T13:43:16;98805.78;;;29.22;43.57
81897;BME280;71360;43.506;1.500;2023-10-13T13:46:05;98821.06;;;29.31;43.11
81897;BME280;71360;43.506;1.500;2023-10-13T13:48:38;98821.50;;;29.41;42.77
81897;BME280;71360;43.506;1.500;2023-10-13T13:51:07;98818.94;;;29.46;41.68
81897;BME280;71360;43.506;1.500;2023-10-13T13:53:53;98810.69;;;29.46;42.08
81897;BME280;71360;43.506;1.500;2023-10-13T13:56:19;98809.66;;;29.47;42.42
81897;BME280;71360;43.506;1.500;2023-10-13T13:58:46;98806.47;;;29.51;42.51